createdAt,value
2023-03-25T00:01:51.288Z,8.20
2023-03-25T00:04:18.018Z,8.30
2023-03-25T00:06:44.750Z,8.20
2023-03-25T00:09:11.413Z,8.20
2023-03-25T00:11:38.134Z,8.20
2023-03-25T00:14:04.932Z,8.20
2023-03-25T00:16:31.838Z,8.10
2023-03-25T00:18:59.928Z,8.10
2023-03-25T00:21:26.690Z,8.20
2023-03-25T00:23:53.419Z,8.20
2023-03-25T00:26:20.312Z,8.10
2023-03-25T00:28:47.064Z,8.10
2023-03-25T00:31:14.260Z,8.10
2023-03-25T00:33:43.687Z,8.20
2023-03-25T00:36:13.242Z,8.10
2023-03-25T00:38:41.742Z,8.20
2023-03-25T00:41:23.273Z,8.20
2023-03-25T00:43:51.064Z,8.20
2023-03-25T00:46:19.512Z,8.20
2023-03-25T00:48:46.219Z,8.20
2023-03-25T00:51:14.630Z,8.20
2023-03-25T00:53:41.312Z,8.10
2023-03-25T00:56:09.613Z,8.10
2023-03-25T00:58:36.374Z,8.10
2023-03-25T01:01:13.081Z,8.10
2023-03-25T01:03:40.693Z,8.10
2023-03-25T01:06:12.402Z,8.10
2023-03-25T01:08:41.149Z,8.10
2023-03-25T01:11:16.353Z,8.10
2023-03-25T01:13:43.016Z,8.10
2023-03-25T01:16:10.119Z,8.10
2023-03-25T01:18:38.667Z,8.10
2023-03-25T01:21:06.076Z,8.10
2023-03-25T01:23:32.982Z,8.10
2023-03-25T01:25:59.736Z,8.10
2023-03-25T01:28:27.982Z,8.00
2023-03-25T01:31:02.018Z,8.00
2023-03-25T01:33:28.804Z,8.00
2023-03-25T01:35:56.098Z,8.00
2023-03-25T01:38:23.382Z,8.00
2023-03-25T01:40:51.137Z,8.00
2023-03-25T01:43:19.804Z,8.00
2023-03-25T01:45:46.822Z,8.00
2023-03-25T01:48:19.738Z,8.00
2023-03-25T01:50:50.876Z,8.00
2023-03-25T01:53:17.607Z,7.90
2023-03-25T01:55:44.515Z,7.90
2023-03-25T01:58:12.639Z,7.90
2023-03-25T02:00:43.835Z,7.90
2023-03-25T02:03:11.256Z,7.90
2023-03-25T02:05:51.029Z,7.90
2023-03-25T02:08:17.909Z,7.90
2023-03-25T02:10:45.885Z,7.90
2023-03-25T02:13:12.596Z,7.90
2023-03-25T02:16:05.165Z,7.90
2023-03-25T02:18:51.149Z,7.90
2023-03-25T02:21:59.948Z,7.90
2023-03-25T02:24:54.437Z,7.90
2023-03-25T02:27:41.807Z,7.90
2023-03-25T02:30:27.627Z,7.80
2023-03-25T02:33:25.082Z,7.80
2023-03-25T02:36:01.026Z,7.80
2023-03-25T02:38:31.183Z,7.80
2023-03-25T02:41:05.382Z,7.80
2023-03-25T02:43:38.050Z,7.70
2023-03-25T02:46:07.721Z,7.70
2023-03-25T02:48:45.166Z,7.70
2023-03-25T02:51:16.943Z,7.70
2023-03-25T02:53:44.696Z,7.70
2023-03-25T02:56:14.586Z,7.70
2023-03-25T02:58:41.905Z,7.70
2023-03-25T03:01:10.248Z,7.70
2023-03-25T03:03:37.454Z,7.70
2023-03-25T03:06:04.787Z,7.60
2023-03-25T03:08:44.548Z,7.60
2023-03-25T03:11:31.129Z,7.60
2023-03-25T03:14:09.829Z,7.60
2023-03-25T03:17:03.468Z,7.60
2023-03-25T03:19:52.382Z,7.60
2023-03-25T03:22:39.309Z,7.60
2023-03-25T03:25:23.714Z,7.60
2023-03-25T03:28:17.161Z,7.60
2023-03-25T03:30:58.528Z,7.60
2023-03-25T03:33:33.373Z,7.70
2023-03-25T03:36:08.608Z,7.60
2023-03-25T03:38:41.366Z,7.60
2023-03-25T03:41:09.736Z,7.70
2023-03-25T03:43:43.027Z,7.70
2023-03-25T03:46:15.835Z,7.70
2023-03-25T03:48:48.119Z,7.70
2023-03-25T03:51:29.286Z,7.70
2023-03-25T03:54:22.763Z,7.70
2023-03-25T03:57:03.584Z,7.70
2023-03-25T03:59:51.576Z,7.70
2023-03-25T04:02:34.847Z,7.60
2023-03-25T04:05:01.744Z,7.60
2023-03-25T04:07:38.843Z,7.60
2023-03-25T04:10:15.035Z,7.50
2023-03-25T04:12:46.903Z,7.50
2023-03-25T04:15:13.950Z,7.50
2023-03-25T04:17:40.637Z,7.50
2023-03-25T04:20:11.434Z,7.50
2023-03-25T04:22:38.434Z,7.50
2023-03-25T04:25:06.470Z,7.60
2023-03-25T04:27:33.138Z,7.60
2023-03-25T04:30:01.656Z,7.60
2023-03-25T04:32:28.425Z,7.60
2023-03-25T04:34:58.339Z,7.60
2023-03-25T04:37:25.612Z,7.60
2023-03-25T04:39:53.864Z,7.60
2023-03-25T04:42:20.630Z,7.60
2023-03-25T04:44:47.316Z,7.60
2023-03-25T04:47:14.865Z,7.60
2023-03-25T04:49:44.900Z,7.60
2023-03-25T04:52:11.671Z,7.60
2023-03-25T04:54:41.030Z,7.60
2023-03-25T04:57:08.800Z,7.60
2023-03-25T04:59:35.906Z,7.60
2023-03-25T05:02:05.711Z,7.60
2023-03-25T05:04:32.809Z,7.60
2023-03-25T05:06:59.556Z,7.60
2023-03-25T05:09:26.258Z,7.60
2023-03-25T05:11:53.083Z,7.70
2023-03-25T05:14:21.127Z,7.60
2023-03-25T05:16:47.895Z,7.70
2023-03-25T05:19:15.079Z,7.70
2023-03-25T05:21:42.249Z,7.70
2023-03-25T05:24:10.268Z,7.70
2023-03-25T05:26:37.767Z,7.70
2023-03-25T05:29:04.574Z,7.70
2023-03-25T05:31:31.446Z,7.70
2023-03-25T05:33:58.207Z,7.60
2023-03-25T05:36:25.097Z,7.60
2023-03-25T05:38:55.020Z,7.60
2023-03-25T05:41:22.769Z,7.60
2023-03-25T05:43:50.631Z,7.60
2023-03-25T05:46:17.987Z,7.70
2023-03-25T05:48:45.110Z,7.70
2023-03-25T05:51:15.576Z,7.70
2023-03-25T05:53:49.801Z,7.60
2023-03-25T05:56:21.064Z,7.60
2023-03-25T05:58:48.626Z,7.70
2023-03-25T06:01:31.192Z,7.70
2023-03-25T06:04:01.551Z,7.70
2023-03-25T06:06:28.558Z,7.80
2023-03-25T06:08:55.776Z,7.80
2023-03-25T06:11:22.536Z,7.80
2023-03-25T06:13:52.029Z,7.80
2023-03-25T06:16:20.607Z,7.80
2023-03-25T06:18:51.002Z,7.80
2023-03-25T06:21:18.635Z,7.80
2023-03-25T06:23:45.998Z,7.80
2023-03-25T06:26:12.769Z,7.90
2023-03-25T06:28:39.514Z,7.90
2023-03-25T06:31:20.534Z,7.90
2023-03-25T06:33:47.655Z,8.00
2023-03-25T06:36:18.523Z,8.00
2023-03-25T06:38:46.041Z,8.10
2023-03-25T06:41:14.668Z,8.20
2023-03-25T06:43:42.735Z,8.20
2023-03-25T06:46:09.519Z,8.30
2023-03-25T06:48:56.520Z,8.30
2023-03-25T06:51:23.820Z,8.30
2023-03-25T06:53:50.627Z,8.40
2023-03-25T06:56:18.612Z,8.50
2023-03-25T06:58:45.922Z,8.50
2023-03-25T07:01:12.829Z,8.60
2023-03-25T07:03:39.706Z,8.60
2023-03-25T07:06:06.895Z,8.70
2023-03-25T07:08:33.607Z,8.80
2023-03-25T07:11:01.917Z,8.80
2023-03-25T07:13:28.741Z,8.80
2023-03-25T07:15:56.205Z,9.00
2023-03-25T07:18:22.943Z,9.00
2023-03-25T07:20:49.594Z,8.90
2023-03-25T07:23:16.321Z,8.80
2023-03-25T07:25:43.139Z,8.70
2023-03-25T07:28:09.902Z,8.70
2023-03-25T07:30:42.769Z,8.70
2023-03-25T07:33:09.541Z,8.70
2023-03-25T07:35:36.458Z,8.70
2023-03-25T07:38:03.428Z,8.80
2023-03-25T07:40:30.173Z,8.80
2023-03-25T07:42:56.934Z,8.90
2023-03-25T07:45:44.733Z,9.00
2023-03-25T07:48:14.630Z,9.00
2023-03-25T07:50:41.963Z,9.00
2023-03-25T07:53:08.646Z,9.00
2023-03-25T07:55:35.374Z,9.20
2023-03-25T07:58:02.818Z,9.30
2023-03-25T08:00:29.878Z,9.30
2023-03-25T08:02:56.631Z,9.30
2023-03-25T08:05:23.619Z,9.40
2023-03-25T08:07:50.815Z,9.50
2023-03-25T08:10:17.824Z,9.70
2023-03-25T08:12:44.639Z,9.90
2023-03-25T08:15:11.844Z,10.10
2023-03-25T08:17:39.208Z,10.10
2023-03-25T08:20:06.967Z,10.00
2023-03-25T08:22:33.798Z,9.70
2023-03-25T08:25:00.578Z,9.60
2023-03-25T08:27:27.390Z,9.70
2023-03-25T08:29:57.618Z,9.60
2023-03-25T08:32:24.598Z,9.60
2023-03-25T08:34:51.321Z,9.60
2023-03-25T08:37:18.024Z,9.60
2023-03-25T08:39:45.518Z,9.50
2023-03-25T08:42:12.965Z,9.30
2023-03-25T08:44:39.804Z,9.10
2023-03-25T08:47:06.511Z,8.80
2023-03-25T08:49:35.005Z,8.50
2023-03-25T08:52:02.154Z,8.10
2023-03-25T08:54:29.772Z,7.80
2023-03-25T08:56:56.544Z,7.70
2023-03-25T08:59:23.240Z,7.70
2023-03-25T09:01:49.980Z,7.80
2023-03-25T09:04:16.757Z,8.00
2023-03-25T09:06:47.781Z,8.10
2023-03-25T09:09:16.406Z,8.00
2023-03-25T09:11:43.217Z,8.20
2023-03-25T09:14:10.162Z,8.40
2023-03-25T09:16:36.837Z,8.90
2023-03-25T09:19:03.610Z,9.20
2023-03-25T09:21:30.474Z,9.30
2023-03-25T09:23:57.130Z,9.30
2023-03-25T09:26:26.610Z,9.20
2023-03-25T09:28:56.249Z,9.00
2023-03-25T09:31:23.752Z,9.00
2023-03-25T09:33:50.595Z,9.00
2023-03-25T09:36:17.301Z,9.30
2023-03-25T09:38:44.056Z,9.60
2023-03-25T09:41:32.803Z,9.70
2023-03-25T09:48:41.680Z,10.10
2023-03-25T09:51:22.064Z,10.40
2023-03-25T09:53:51.297Z,10.70
2023-03-25T09:56:20.304Z,10.90
2023-03-25T09:58:48.438Z,10.70
2023-03-25T10:01:36.396Z,11.00
2023-03-25T10:04:07.653Z,11.40
2023-03-25T10:06:38.557Z,11.20
2023-03-25T10:09:11.214Z,11.10
2023-03-25T10:12:16.223Z,11.00
2023-03-25T10:15:04.559Z,10.80
2023-03-25T10:18:06.116Z,10.40
2023-03-25T10:20:41.624Z,10.40
2023-03-25T10:23:28.555Z,10.70
2023-03-25T10:26:34.199Z,10.70
2023-03-25T10:29:06.292Z,10.40
2023-03-25T10:31:37.582Z,10.60
2023-03-25T10:34:10.889Z,11.30
2023-03-25T10:36:48.340Z,11.60
2023-03-25T10:39:22.938Z,11.30
2023-03-25T10:41:59.439Z,11.10
2023-03-25T10:44:28.973Z,11.00
2023-03-25T10:47:13.094Z,11.00
2023-03-25T10:49:41.647Z,10.80
2023-03-25T10:52:08.372Z,10.80
2023-03-25T10:54:45.904Z,10.70
2023-03-25T10:57:27.633Z,10.80
2023-03-25T11:00:14.700Z,11.00
2023-03-25T11:02:41.552Z,11.60
2023-03-25T11:05:09.921Z,12.30
2023-03-25T11:07:39.071Z,12.80
2023-03-25T11:10:18.464Z,13.30
2023-03-25T11:12:46.753Z,13.30
2023-03-25T11:15:16.075Z,13.30
2023-03-25T11:17:45.011Z,13.30
2023-03-25T11:20:36.458Z,13.30
2023-03-25T11:23:08.328Z,13.60
2023-03-25T11:25:41.758Z,13.70
2023-03-25T11:28:25.248Z,13.50
2023-03-25T11:31:14.793Z,13.00
2023-03-25T11:33:42.763Z,12.70
2023-03-25T11:36:22.810Z,13.50
2023-03-25T11:39:01.078Z,14.00
2023-03-25T11:41:29.447Z,14.10
2023-03-25T11:43:56.900Z,13.50
2023-03-25T11:46:23.750Z,12.70
2023-03-25T11:48:50.781Z,12.20
2023-03-25T11:51:25.927Z,12.90
2023-03-25T11:53:56.859Z,13.90
2023-03-25T11:56:27.105Z,14.10
2023-03-25T11:58:53.849Z,14.70
2023-03-25T12:01:27.723Z,15.00
2023-03-25T12:04:11.678Z,14.90
2023-03-25T12:06:42.233Z,14.60
2023-03-25T12:09:11.690Z,14.80
2023-03-25T12:11:51.290Z,14.40
2023-03-25T12:14:38.919Z,13.60
2023-03-25T12:17:31.670Z,13.20
2023-03-25T12:20:20.515Z,12.50
2023-03-25T12:22:56.130Z,12.40
2023-03-25T12:25:36.987Z,12.70
2023-03-25T12:28:07.638Z,12.80
2023-03-25T12:30:59.575Z,12.70
2023-03-25T12:34:04.420Z,12.50
2023-03-25T12:36:49.248Z,12.30
2023-03-25T12:39:42.675Z,12.20
2023-03-25T12:42:35.944Z,12.10
2023-03-25T12:45:30.280Z,11.90
2023-03-25T12:48:22.696Z,11.60
2023-03-25T12:51:07.394Z,11.50
2023-03-25T12:54:16.215Z,12.20
2023-03-25T12:56:58.931Z,12.40
2023-03-25T12:59:56.458Z,12.10
2023-03-25T13:02:33.581Z,11.80
2023-03-25T13:05:23.008Z,13.30
2023-03-25T13:07:52.989Z,13.50
2023-03-25T13:10:21.520Z,13.40
2023-03-25T13:12:53.924Z,13.60
2023-03-25T13:15:27.733Z,13.70
2023-03-25T13:18:21.149Z,13.60
2023-03-25T13:21:01.083Z,13.00
2023-03-25T13:23:28.258Z,12.80
2023-03-25T13:26:06.407Z,12.80
2023-03-25T13:28:38.178Z,12.90
2023-03-25T13:31:19.342Z,13.10
2023-03-25T13:33:57.081Z,13.20
2023-03-25T13:36:32.064Z,13.40
2023-03-25T13:39:08.758Z,13.10
2023-03-25T13:41:44.843Z,12.90
2023-03-25T13:44:12.854Z,12.70
2023-03-25T13:47:01.599Z,12.40
2023-03-25T13:50:04.581Z,12.10
2023-03-25T13:52:37.475Z,11.60
2023-03-25T13:55:09.449Z,11.30
2023-03-25T13:57:59.204Z,11.50
2023-03-25T14:00:38.115Z,11.80
2023-03-25T14:03:40.322Z,12.00
2023-03-25T14:06:32.266Z,12.30
2023-03-25T14:09:23.324Z,12.30
2023-03-25T14:12:05.688Z,12.20
2023-03-25T14:14:35.393Z,12.20
2023-03-25T14:17:02.077Z,12.30
2023-03-25T14:19:38.270Z,12.30
2023-03-25T14:22:18.117Z,12.50
2023-03-25T14:24:45.918Z,12.70
2023-03-25T14:27:21.682Z,12.80
2023-03-25T14:30:01.533Z,12.80
2023-03-25T14:32:38.785Z,12.90
2023-03-25T14:35:33.779Z,13.10
2023-03-25T14:38:07.364Z,13.10
2023-03-25T14:40:54.591Z,12.90
2023-03-25T14:43:35.322Z,12.90
2023-03-25T14:46:11.483Z,12.60
2023-03-25T14:48:55.808Z,12.50
2023-03-25T14:51:43.376Z,12.50
2023-03-25T14:54:19.195Z,12.40
2023-03-25T14:57:06.672Z,12.60
2023-03-25T14:59:39.470Z,12.70
2023-03-25T15:02:17.417Z,12.70
2023-03-25T15:04:44.300Z,12.90
2023-03-25T15:07:16.048Z,12.80
2023-03-25T15:09:53.597Z,12.60
2023-03-25T15:12:21.839Z,12.50
2023-03-25T15:14:49.234Z,12.30
2023-03-25T15:17:40.027Z,12.30
2023-03-25T15:20:10.300Z,12.10
2023-03-25T15:22:37.780Z,11.90
2023-03-25T15:25:19.303Z,11.70
2023-03-25T15:27:56.958Z,11.50
2023-03-25T15:30:41.396Z,11.50
2023-03-25T15:33:16.706Z,11.20
2023-03-25T15:35:55.819Z,11.00
2023-03-25T15:38:37.490Z,10.90
2023-03-25T15:41:27.207Z,10.80
2023-03-25T15:44:00.563Z,10.40
2023-03-25T15:46:53.104Z,10.10
2023-03-25T15:49:28.625Z,9.70
2023-03-25T15:52:10.909Z,9.50
2023-03-25T15:54:40.429Z,9.00
2023-03-25T15:57:17.091Z,8.90
2023-03-25T15:59:50.929Z,8.70
2023-03-25T16:02:36.062Z,8.70
2023-03-25T16:05:03.158Z,8.80
2023-03-25T16:07:30.805Z,8.80
2023-03-25T16:10:04.869Z,8.80
2023-03-25T16:12:31.684Z,8.90
2023-03-25T16:14:58.460Z,8.90
2023-03-25T16:17:32.688Z,8.90
2023-03-25T16:19:59.591Z,8.90
2023-03-25T16:22:33.499Z,8.90
2023-03-25T16:25:09.313Z,8.90
2023-03-25T16:27:37.660Z,9.00
2023-03-25T16:30:37.396Z,9.00
2023-03-25T16:33:07.958Z,8.90
2023-03-25T16:35:36.561Z,9.00
2023-03-25T16:38:03.666Z,8.90
2023-03-25T16:40:37.615Z,8.90
2023-03-25T16:43:27.221Z,9.00
2023-03-25T16:46:02.282Z,9.10
2023-03-25T16:48:40.379Z,9.20
2023-03-25T16:51:18.240Z,9.20
2023-03-25T16:53:44.925Z,9.10
2023-03-25T16:56:14.732Z,9.10
2023-03-25T16:59:08.006Z,9.00
2023-03-25T17:01:39.521Z,9.00
2023-03-25T17:04:19.110Z,9.00
2023-03-25T17:06:53.445Z,9.00
2023-03-25T17:09:25.995Z,9.00
2023-03-25T17:11:56.676Z,9.00
2023-03-25T17:14:27.984Z,9.00
2023-03-25T17:16:54.693Z,8.90
2023-03-25T17:19:22.691Z,9.00
2023-03-25T17:22:16.332Z,9.00
2023-03-25T17:24:50.596Z,9.10
2023-03-25T17:27:36.717Z,9.10
2023-03-25T17:30:19.360Z,9.10
2023-03-25T17:32:46.511Z,9.00
2023-03-25T17:35:28.043Z,9.00
2023-03-25T17:37:54.862Z,9.00
2023-03-25T17:40:23.433Z,9.00
2023-03-25T17:42:50.183Z,9.00
2023-03-25T17:45:17.269Z,9.00
2023-03-25T17:47:44.245Z,9.00
2023-03-25T17:50:19.015Z,9.00
2023-03-25T17:52:45.869Z,8.90
2023-03-25T17:55:12.852Z,9.00
2023-03-25T17:57:39.570Z,8.90
2023-03-25T18:00:20.622Z,8.90
2023-03-25T18:02:47.603Z,8.90
2023-03-25T18:05:14.626Z,8.80
2023-03-25T18:07:41.364Z,8.80
2023-03-25T18:10:16.981Z,8.80
2023-03-25T18:12:44.100Z,8.70
2023-03-25T18:15:10.991Z,8.70
2023-03-25T18:17:37.957Z,8.70
2023-03-25T18:20:16.545Z,8.70
2023-03-25T18:22:43.585Z,8.60
2023-03-25T18:25:10.336Z,8.60
2023-03-25T18:27:43.891Z,8.60
2023-03-25T18:30:20.141Z,8.60
2023-03-25T18:32:46.961Z,8.50
2023-03-25T18:35:13.760Z,8.50
2023-03-25T18:37:41.599Z,8.50
2023-03-25T18:40:18.858Z,8.50
2023-03-25T18:42:45.677Z,8.40
2023-03-25T18:45:12.378Z,8.50
2023-03-25T18:47:39.183Z,8.40
2023-03-25T18:50:16.488Z,8.40
2023-03-25T18:52:43.668Z,8.40
2023-03-25T18:55:10.384Z,8.40
2023-03-25T18:57:37.166Z,8.40
2023-03-25T19:00:05.486Z,8.40
2023-03-25T19:02:32.630Z,8.30
2023-03-25T19:05:00.689Z,8.30
2023-03-25T19:07:28.572Z,8.30
2023-03-25T19:09:55.247Z,8.30
2023-03-25T19:12:21.948Z,8.30
2023-03-25T19:14:48.633Z,8.30
2023-03-25T19:17:15.545Z,8.30
2023-03-25T19:19:42.315Z,8.30
2023-03-25T19:22:09.899Z,8.20
2023-03-25T19:24:36.716Z,8.20
2023-03-25T19:27:03.545Z,8.20
2023-03-25T19:29:30.338Z,8.20
2023-03-25T19:31:57.077Z,8.20
2023-03-25T19:34:23.844Z,8.20
2023-03-25T19:36:52.256Z,8.20
2023-03-25T19:39:22.682Z,8.10
2023-03-25T19:41:51.341Z,8.10
2023-03-25T19:44:18.108Z,8.10
2023-03-25T19:46:44.817Z,8.10
2023-03-25T19:49:11.765Z,8.10
2023-03-25T19:51:39.275Z,8.10
2023-03-25T19:54:06.120Z,8.10
2023-03-25T19:56:32.888Z,8.10
2023-03-25T19:58:59.704Z,8.10
2023-03-25T20:01:26.824Z,8.00
2023-03-25T20:03:53.617Z,8.10
2023-03-25T20:06:20.626Z,8.00
2023-03-25T20:08:47.351Z,8.00
2023-03-25T20:11:15.224Z,8.00
2023-03-25T20:13:41.880Z,8.00
2023-03-25T20:16:08.800Z,8.00
2023-03-25T20:18:35.518Z,8.00
2023-03-25T20:21:02.212Z,8.00
2023-03-25T20:23:29.068Z,8.00
2023-03-25T20:25:56.277Z,8.00
2023-03-25T20:28:23.478Z,8.00
2023-03-25T20:30:50.409Z,8.00
2023-03-25T20:33:17.349Z,8.00
2023-03-25T20:35:44.359Z,7.90
2023-03-25T20:38:11.560Z,7.90
2023-03-25T20:40:44.457Z,7.90
2023-03-25T20:43:13.904Z,7.90
2023-03-25T20:45:41.245Z,7.90
2023-03-25T20:48:08.666Z,7.80
2023-03-25T20:50:35.966Z,7.90
2023-03-25T20:53:04.083Z,7.80
2023-03-25T20:55:31.078Z,7.90
2023-03-25T20:57:57.798Z,7.80
2023-03-25T21:00:24.494Z,7.80
2023-03-25T21:02:52.377Z,7.80
2023-03-25T21:05:19.288Z,7.80
2023-03-25T21:07:47.673Z,7.80
2023-03-25T21:10:14.497Z,7.80
2023-03-25T21:12:44.718Z,7.80
2023-03-25T21:15:12.136Z,7.80
2023-03-25T21:17:38.872Z,7.80
2023-03-25T21:20:07.293Z,7.80
2023-03-25T21:22:34.469Z,7.80
2023-03-25T21:25:01.346Z,7.80
2023-03-25T21:27:38.015Z,7.80
2023-03-25T21:30:09.161Z,7.90
2023-03-25T21:32:35.984Z,7.90
2023-03-25T21:35:02.730Z,7.80
2023-03-25T21:37:29.605Z,7.90
2023-03-25T21:39:57.979Z,7.90
2023-03-25T21:42:24.785Z,7.90
2023-03-25T21:44:51.512Z,7.90
2023-03-25T21:47:18.227Z,7.90
2023-03-25T21:49:44.906Z,7.90
2023-03-25T21:52:13.064Z,7.90
2023-03-25T21:54:43.358Z,7.80
2023-03-25T21:57:11.081Z,7.80
2023-03-25T21:59:37.854Z,7.80
2023-03-25T22:02:04.734Z,7.80
2023-03-25T22:04:33.537Z,7.70
2023-03-25T22:07:00.289Z,7.70
2023-03-25T22:09:26.953Z,7.70
2023-03-25T22:11:53.775Z,7.70
2023-03-25T22:14:20.742Z,7.70
2023-03-25T22:16:47.488Z,7.70
2023-03-25T22:19:14.207Z,7.70
2023-03-25T22:21:41.147Z,7.70
2023-03-25T22:24:08.149Z,7.60
2023-03-25T22:26:36.537Z,7.60
2023-03-25T22:29:04.143Z,7.60
2023-03-25T22:31:32.237Z,7.60
2023-03-25T22:34:10.894Z,7.60
2023-03-25T22:36:39.521Z,7.60
2023-03-25T22:39:06.500Z,7.60
2023-03-25T22:41:33.203Z,7.60
2023-03-25T22:43:59.944Z,7.60
2023-03-25T22:46:26.635Z,7.50
2023-03-25T22:48:53.357Z,7.50
2023-03-25T22:51:20.738Z,7.50
2023-03-25T22:53:47.665Z,7.50
2023-03-25T22:56:14.400Z,7.50
2023-03-25T22:58:41.117Z,7.50
2023-03-25T23:01:21.094Z,7.50
2023-03-25T23:03:47.954Z,7.50
2023-03-25T23:06:15.322Z,7.50
2023-03-25T23:08:42.381Z,7.40
2023-03-25T23:11:20.697Z,7.50
2023-03-25T23:13:50.396Z,7.50
2023-03-25T23:16:21.679Z,7.40
2023-03-25T23:18:48.630Z,7.50
2023-03-25T23:21:19.732Z,7.40
2023-03-25T23:23:53.130Z,7.40
2023-03-25T23:26:26.282Z,7.40
2023-03-25T23:28:54.030Z,7.40
2023-03-25T23:31:28.475Z,7.30
2023-03-25T23:33:59.496Z,7.40
2023-03-25T23:36:28.008Z,7.30
2023-03-25T23:38:54.768Z,7.40
2023-03-25T23:41:25.622Z,7.40
2023-03-25T23:43:53.074Z,7.40
2023-03-25T23:46:21.083Z,7.40
2023-03-25T23:48:47.973Z,7.40
2023-03-25T23:51:20.055Z,7.50
2023-03-25T23:53:47.771Z,7.50
2023-03-25T23:56:15.630Z,7.40
2023-03-25T23:58:42.454Z,7.40
